Apj Shirin — 3EVS6 — position and weather

sailwx.info

Track history (hours):
 
Tides and Currents Weather Stations Pressure Air Temp Water Temp Dewpoint Dewpoint Depression Visibility Wind Speed Wind Dir Waves Ship Positions

Apj Shirin

Last reported at 2014-Sep-29 22:10 UTC. Time now 2014-Oct-25 23:32 UTC.
Position S 05°28' E 113°09'.
Warning: this ship's position is 26 days out of date.

Length 189 m; draft 7.2 m.

Type: Cargo ship. MMSI: 373223000.

Date/timePositionNaut miles runAvg speedWind from/ knotsBaromVisibWave heightAir tempDewpointWater temp
2014-Sep-29 22:10S 05°28' E 113°09'711.1
2014-Sep-29 21:34S 05°26' E 113°03'1211.2
2014-Sep-29 20:31S 05°22' E 112°52'1311.3
2014-Sep-29 19:23S 05°17' E 112°40'911.3
2014-Sep-29 18:34S 05°13' E 112°31'1411.3
2014-Sep-29 17:19S 05°09' E 112°18'911.3
2014-Sep-29 16:33S 05°06' E 112°09'1111.3
2014-Sep-29 15:34S 05°02' E 111°59'  
2014-Sep-27 04:03N 01°16' E 103°58'1 0.3
2014-Sep-27 00:04N 01°17' E 103°57'0 0.0
2014-Sep-26 19:31N 01°17' E 103°57'0 0.0
2014-Sep-26 17:10N 01°17' E 103°57'0 0.0
2014-Sep-26 11:31N 01°17' E 103°57'0 0.1
2014-Sep-26 10:30N 01°17' E 103°57'0 0.0
2014-Sep-26 09:30N 01°17' E 103°57'0 0.1
2014-Sep-26 08:34N 01°17' E 103°57'0 0.1
2014-Sep-26 07:30N 01°17' E 103°57'0 0.0
2014-Sep-26 06:33N 01°17' E 103°57'0 0.2
2014-Sep-26 05:33N 01°17' E 103°57'0 0.0
2014-Sep-26 01:10N 01°17' E 103°57'0 0.0
2014-Sep-26 00:33N 01°17' E 103°57'0 0.1
2014-Sep-25 23:16N 01°17' E 103°57'0 0.1
2014-Sep-25 21:33N 01°17' E 103°57'0 0.0
2014-Sep-25 20:25N 01°17' E 103°57'0 0.0
2014-Sep-25 19:34N 01°17' E 103°57'0 0.0
2014-Sep-25 18:34N 01°17' E 103°57'0 0.0
2014-Sep-25 12:07N 01°17' E 103°57'3 3.4
2014-Sep-25 11:14N 01°14' E 103°56'6 9.2
2014-Sep-25 10:33N 01°11' E 103°51'1110.8
2014-Sep-25 09:34N 01°04' E 103°42'11 8.4
2014-Sep-25 08:15N 01°07' E 103°32'7 9.3
2014-Sep-25 07:33N 01°10' E 103°26'  
Track history (hours):
 
Tides and Currents Weather Stations Pressure Air Temp Water Temp Dewpoint Dewpoint Depression Visibility Wind Speed Wind Dir Waves Ship Positions

Apj Shirin

Last reported at 2014-Sep-29 22:10 UTC. Time now 2014-Oct-25 23:32 UTC.
Position S 05°28' E 113°09'.
Warning: this ship's position is 26 days out of date.

Length 189 m; draft 7.2 m.

Type: Cargo ship. MMSI: 373223000.

Date/timePositionNaut miles runAvg speedWind from/ knotsBaromVisibWave heightAir tempDewpointWater temp
2014-Sep-29 22:10S 05°28' E 113°09'711.1
2014-Sep-29 21:34S 05°26' E 113°03'1211.2
2014-Sep-29 20:31S 05°22' E 112°52'1311.3
2014-Sep-29 19:23S 05°17' E 112°40'911.3
2014-Sep-29 18:34S 05°13' E 112°31'1411.3
2014-Sep-29 17:19S 05°09' E 112°18'911.3
2014-Sep-29 16:33S 05°06' E 112°09'1111.3
2014-Sep-29 15:34S 05°02' E 111°59'  
2014-Sep-27 04:03N 01°16' E 103°58'1 0.3
2014-Sep-27 00:04N 01°17' E 103°57'0 0.0
2014-Sep-26 19:31N 01°17' E 103°57'0 0.0
2014-Sep-26 17:10N 01°17' E 103°57'0 0.0
2014-Sep-26 11:31N 01°17' E 103°57'0 0.1
2014-Sep-26 10:30N 01°17' E 103°57'0 0.0
2014-Sep-26 09:30N 01°17' E 103°57'0 0.1
2014-Sep-26 08:34N 01°17' E 103°57'0 0.1
2014-Sep-26 07:30N 01°17' E 103°57'0 0.0
2014-Sep-26 06:33N 01°17' E 103°57'0 0.2
2014-Sep-26 05:33N 01°17' E 103°57'0 0.0
2014-Sep-26 01:10N 01°17' E 103°57'0 0.0
2014-Sep-26 00:33N 01°17' E 103°57'0 0.1
2014-Sep-25 23:16N 01°17' E 103°57'0 0.1
2014-Sep-25 21:33N 01°17' E 103°57'0 0.0
2014-Sep-25 20:25N 01°17' E 103°57'0 0.0
2014-Sep-25 19:34N 01°17' E 103°57'0 0.0
2014-Sep-25 18:34N 01°17' E 103°57'0 0.0
2014-Sep-25 12:07N 01°17' E 103°57'3 3.4
2014-Sep-25 11:14N 01°14' E 103°56'6 9.2
2014-Sep-25 10:33N 01°11' E 103°51'1110.8
2014-Sep-25 09:34N 01°04' E 103°42'11 8.4
2014-Sep-25 08:15N 01°07' E 103°32'7 9.3
2014-Sep-25 07:33N 01°10' E 103°26'  

Dump ship's entire track history